createdAt,value
2022-12-25T00:00:55.234Z,9.60
2022-12-25T00:03:21.971Z,11.07
2022-12-25T00:05:48.407Z,10.68
2022-12-25T00:08:14.874Z,8.80
2022-12-25T00:10:45.291Z,8.43
2022-12-25T00:13:12.183Z,9.35
2022-12-25T00:15:41.893Z,7.70
2022-12-25T00:18:08.506Z,7.93
2022-12-25T00:20:36.226Z,9.38
2022-12-25T00:23:02.709Z,7.13
2022-12-25T00:25:29.111Z,8.38
2022-12-25T00:27:55.661Z,9.50
2022-12-25T00:30:22.076Z,11.10
2022-12-25T00:32:48.731Z,8.82
2022-12-25T00:35:15.215Z,8.23
2022-12-25T00:37:41.645Z,7.18
2022-12-25T00:40:08.604Z,8.63
2022-12-25T00:42:35.070Z,6.38
2022-12-25T00:45:01.671Z,7.25
2022-12-25T00:47:28.171Z,6.70
2022-12-25T00:49:55.100Z,6.75
2022-12-25T00:52:21.472Z,6.65
2022-12-25T00:54:47.905Z,8.55
2022-12-25T00:57:14.275Z,6.43
2022-12-25T00:59:40.753Z,8.05
2022-12-25T01:02:25.804Z,7.05
2022-12-25T01:04:56.843Z,5.90
2022-12-25T01:07:25.732Z,5.60
2022-12-25T01:10:10.905Z,8.15
2022-12-25T01:12:40.821Z,6.55
2022-12-25T01:15:08.778Z,8.02
2022-12-25T01:17:35.179Z,8.30
2022-12-25T01:20:02.155Z,8.20
2022-12-25T01:22:28.606Z,7.97
2022-12-25T01:24:55.029Z,6.55
2022-12-25T01:27:21.445Z,6.38
2022-12-25T01:29:47.845Z,8.75
2022-12-25T01:32:14.319Z,6.70
2022-12-25T01:34:40.743Z,6.70
2022-12-25T01:37:07.225Z,5.55
2022-12-25T01:39:34.171Z,4.80
2022-12-25T01:42:00.578Z,6.95
2022-12-25T01:44:36.117Z,5.15
2022-12-25T01:47:06.567Z,5.63
2022-12-25T01:49:36.475Z,6.07
2022-12-25T01:52:11.667Z,4.00
2022-12-25T01:54:43.319Z,6.57
2022-12-25T01:57:16.793Z,5.30
2022-12-25T01:59:43.644Z,6.30
2022-12-25T02:02:10.624Z,7.53
2022-12-25T02:04:58.694Z,5.68
2022-12-25T02:07:28.348Z,8.10
2022-12-25T02:09:54.708Z,5.55
2022-12-25T02:12:24.613Z,4.70
2022-12-25T02:14:53.410Z,4.57
2022-12-25T02:17:31.064Z,5.65
2022-12-25T02:20:31.380Z,6.00
2022-12-25T02:23:32.077Z,5.90
2022-12-25T02:26:17.017Z,5.78
2022-12-25T02:29:17.460Z,4.70
2022-12-25T02:31:59.222Z,5.47
2022-12-25T02:34:38.140Z,5.57
2022-12-25T02:37:18.088Z,5.57
2022-12-25T02:39:59.499Z,4.20
2022-12-25T02:43:02.323Z,5.53
2022-12-25T02:46:12.502Z,4.40
2022-12-25T02:49:02.771Z,5.20
2022-12-25T02:51:51.169Z,4.55
2022-12-25T02:54:44.278Z,4.00
2022-12-25T02:57:33.152Z,4.70
2022-12-25T03:00:20.948Z,5.15
2022-12-25T03:03:07.192Z,5.43
2022-12-25T03:05:55.558Z,6.78
2022-12-25T03:08:28.971Z,4.97
2022-12-25T03:11:21.968Z,5.13
2022-12-25T03:13:52.961Z,5.70
2022-12-25T03:16:38.770Z,4.18
2022-12-25T03:22:11.939Z,4.15
2022-12-25T03:24:57.735Z,4.85
2022-12-25T03:30:09.586Z,4.47
2022-12-25T03:32:54.450Z,9.73
2022-12-25T03:36:03.285Z,3.75
2022-12-25T03:38:46.575Z,4.05
2022-12-25T03:41:54.487Z,4.45
2022-12-25T03:44:53.863Z,4.38
2022-12-25T03:47:49.722Z,6.72
2022-12-25T03:50:39.675Z,4.80
2022-12-25T03:53:34.599Z,3.80
2022-12-25T03:56:21.124Z,4.47
2022-12-25T03:59:11.062Z,4.88
2022-12-25T04:01:56.027Z,3.78
2022-12-25T04:04:41.287Z,2.60
2022-12-25T04:07:26.000Z,5.47
2022-12-25T04:10:10.756Z,4.30
2022-12-25T04:12:55.597Z,4.03
2022-12-25T04:15:40.410Z,4.03
2022-12-25T04:18:25.466Z,5.05
2022-12-25T04:21:10.269Z,3.58
2022-12-25T04:23:55.069Z,4.32
2022-12-25T04:26:39.815Z,3.50
2022-12-25T04:29:24.780Z,3.97
2022-12-25T04:32:09.447Z,4.85
2022-12-25T04:34:54.266Z,4.50
2022-12-25T04:37:20.772Z,5.28
2022-12-25T04:39:47.137Z,5.68
2022-12-25T04:42:13.626Z,3.90
2022-12-25T04:44:39.998Z,6.28
2022-12-25T04:47:11.202Z,4.72
2022-12-25T04:49:38.196Z,4.10
2022-12-25T04:52:04.862Z,4.50
2022-12-25T04:54:31.228Z,4.82
2022-12-25T04:56:57.712Z,4.88
2022-12-25T04:59:24.264Z,4.90
2022-12-25T05:01:50.815Z,4.28
2022-12-25T05:04:17.369Z,5.80
2022-12-25T05:06:43.797Z,5.50
2022-12-25T05:09:10.611Z,8.02
2022-12-25T05:11:36.982Z,4.97
2022-12-25T05:14:03.476Z,5.68
2022-12-25T05:16:30.099Z,7.30
2022-12-25T05:18:57.975Z,5.38
2022-12-25T05:21:24.412Z,8.18
2022-12-25T05:23:51.663Z,4.07
2022-12-25T05:26:23.634Z,5.78
2022-12-25T05:28:50.416Z,4.60
2022-12-25T05:31:17.734Z,5.20
2022-12-25T05:33:44.355Z,5.47
2022-12-25T05:36:12.344Z,4.03
2022-12-25T05:38:39.156Z,4.55
2022-12-25T05:41:06.116Z,6.10
2022-12-25T05:43:32.774Z,6.82
2022-12-25T05:46:08.867Z,8.60
2022-12-25T05:48:37.041Z,6.38
2022-12-25T05:51:08.373Z,5.20
2022-12-25T05:53:35.588Z,4.60
2022-12-25T05:56:04.101Z,5.05
2022-12-25T05:58:31.708Z,4.72
2022-12-25T06:00:58.569Z,5.97
2022-12-25T06:03:25.662Z,4.80
2022-12-25T06:05:52.617Z,4.82
2022-12-25T06:08:19.267Z,5.50
2022-12-25T06:10:45.903Z,4.97
2022-12-25T06:13:12.366Z,4.80
2022-12-25T06:15:40.938Z,3.53
2022-12-25T06:18:08.249Z,4.03
2022-12-25T06:20:34.720Z,5.65
2022-12-25T06:23:02.087Z,3.47
2022-12-25T06:25:28.528Z,5.75
2022-12-25T06:27:54.930Z,4.38
2022-12-25T06:30:21.367Z,4.00
2022-12-25T06:32:47.765Z,5.68
2022-12-25T06:35:14.255Z,5.35
2022-12-25T06:37:40.725Z,3.92
2022-12-25T06:40:07.927Z,3.95
2022-12-25T06:42:34.431Z,5.05
2022-12-25T06:45:00.867Z,6.22
2022-12-25T06:47:27.213Z,7.47
2022-12-25T06:49:53.698Z,14.68
2022-12-25T06:52:20.034Z,14.50
2022-12-25T06:54:47.053Z,13.63
2022-12-25T06:57:13.418Z,12.57
2022-12-25T06:59:39.806Z,13.43
2022-12-25T07:02:06.314Z,12.13
2022-12-25T07:04:40.521Z,9.60
2022-12-25T07:07:09.290Z,9.82
2022-12-25T07:09:36.031Z,6.30
2022-12-25T07:12:08.530Z,5.07
2022-12-25T07:14:34.879Z,7.65
2022-12-25T07:17:01.290Z,4.88
2022-12-25T07:19:27.876Z,5.00
2022-12-25T07:21:54.393Z,6.43
2022-12-25T07:24:22.478Z,4.32
2022-12-25T07:26:50.810Z,5.78
2022-12-25T07:29:19.515Z,6.93
2022-12-25T07:31:46.313Z,4.75
2022-12-25T07:34:12.781Z,6.32
2022-12-25T07:36:39.235Z,4.75
2022-12-25T07:39:05.728Z,4.13
2022-12-25T07:41:32.122Z,4.90
2022-12-25T07:43:58.509Z,6.15
2022-12-25T07:46:25.155Z,4.47
2022-12-25T07:48:51.909Z,6.25
2022-12-25T07:51:18.323Z,6.72
2022-12-25T07:53:44.694Z,6.65
2022-12-25T07:56:17.418Z,5.88
2022-12-25T07:58:44.590Z,6.00
2022-12-25T08:01:23.196Z,8.02
2022-12-25T08:04:00.824Z,6.85
2022-12-25T08:06:31.556Z,6.63
2022-12-25T08:09:05.170Z,7.30
2022-12-25T08:13:57.950Z,6.85
2022-12-25T08:16:24.429Z,6.22
2022-12-25T08:18:50.966Z,6.65
2022-12-25T08:21:17.408Z,6.78
2022-12-25T08:23:46.225Z,6.63
2022-12-25T08:26:19.115Z,6.75
2022-12-25T08:28:45.489Z,6.47
2022-12-25T08:31:16.685Z,13.00
2022-12-25T08:33:43.864Z,25.80
2022-12-25T08:36:11.595Z,22.65
2022-12-25T08:38:39.261Z,12.07
2022-12-25T08:41:05.924Z,7.68
2022-12-25T08:43:32.579Z,8.10
2022-12-25T08:45:59.082Z,5.38
2022-12-25T08:48:25.630Z,5.68
2022-12-25T08:50:52.792Z,5.82
2022-12-25T08:53:20.142Z,4.75
2022-12-25T08:55:46.886Z,5.35
2022-12-25T08:58:14.552Z,5.45
2022-12-25T09:00:41.374Z,5.15
2022-12-25T09:03:08.065Z,6.10
2022-12-25T09:05:37.748Z,4.90
2022-12-25T09:08:04.618Z,6.38
2022-12-25T09:10:31.800Z,8.07
2022-12-25T09:12:58.151Z,6.03
2022-12-25T09:15:24.526Z,6.35
2022-12-25T09:17:50.917Z,10.80
2022-12-25T09:20:17.363Z,7.13
2022-12-25T09:22:43.753Z,5.20
2022-12-25T09:25:10.383Z,5.35
2022-12-25T09:27:36.739Z,5.20
2022-12-25T09:30:04.181Z,3.88
2022-12-25T09:34:56.925Z,4.68
2022-12-25T09:37:23.341Z,5.05
2022-12-25T09:39:49.669Z,5.10
2022-12-25T09:42:21.939Z,5.03
2022-12-25T09:45:14.790Z,4.28
2022-12-25T09:47:44.033Z,3.83
2022-12-25T09:50:38.085Z,4.28
2022-12-25T09:53:10.621Z,4.18
2022-12-25T09:55:45.492Z,8.23
2022-12-25T09:58:13.483Z,10.77
2022-12-25T10:00:48.393Z,9.70
2022-12-25T10:03:33.022Z,7.20
2022-12-25T10:06:27.492Z,6.03
2022-12-25T10:09:18.668Z,4.90
2022-12-25T10:12:03.772Z,3.05
2022-12-25T10:14:44.164Z,4.85
2022-12-25T10:17:40.993Z,3.95
2022-12-25T10:20:36.674Z,6.53
2022-12-25T10:23:09.709Z,4.53
2022-12-25T10:25:38.787Z,3.42
2022-12-25T10:28:14.150Z,4.65
2022-12-25T10:30:43.513Z,4.00
2022-12-25T10:33:16.836Z,4.50
2022-12-25T10:35:44.182Z,2.97
2022-12-25T10:38:17.503Z,4.05
2022-12-25T10:41:19.687Z,2.40
2022-12-25T10:43:51.474Z,3.85
2022-12-25T10:46:19.808Z,4.63
2022-12-25T10:48:51.003Z,3.05
2022-12-25T10:51:29.601Z,3.78
2022-12-25T10:53:56.177Z,4.60
2022-12-25T10:56:22.771Z,3.22
2022-12-25T10:58:49.182Z,3.83
2022-12-25T11:01:16.021Z,3.42
2022-12-25T11:03:51.151Z,3.75
2022-12-25T11:06:24.153Z,5.22
2022-12-25T11:08:56.903Z,4.22
2022-12-25T11:11:24.508Z,4.45
2022-12-25T11:13:54.698Z,4.78
2022-12-25T11:16:40.163Z,3.30
2022-12-25T11:21:53.263Z,2.35
2022-12-25T11:24:22.483Z,2.47
2022-12-25T11:26:54.991Z,2.30
2022-12-25T11:29:35.180Z,1.92
2022-12-25T11:32:04.199Z,3.42
2022-12-25T11:34:38.393Z,2.40
2022-12-25T11:37:12.584Z,1.98
2022-12-25T11:39:41.187Z,3.83
2022-12-25T11:42:14.998Z,1.98
2022-12-25T11:45:01.116Z,2.45
2022-12-25T11:47:43.204Z,2.35
2022-12-25T11:50:23.462Z,2.67
2022-12-25T11:52:51.897Z,3.15
2022-12-25T11:55:25.196Z,3.40
2022-12-25T11:57:57.744Z,7.03
2022-12-25T12:00:24.490Z,3.33
2022-12-25T12:03:34.395Z,2.75
2022-12-25T12:08:36.100Z,3.60
2022-12-25T12:11:16.563Z,3.28
2022-12-25T12:13:57.847Z,3.00
2022-12-25T12:16:24.464Z,2.83
2022-12-25T12:18:51.096Z,2.40
2022-12-25T12:21:17.509Z,2.50
2022-12-25T12:24:18.798Z,3.08
2022-12-25T12:26:47.225Z,3.20
2022-12-25T12:29:25.166Z,3.65
2022-12-25T12:31:53.348Z,2.90
2022-12-25T12:34:31.647Z,2.00
2022-12-25T12:37:06.339Z,3.38
2022-12-25T12:39:39.502Z,3.75
2022-12-25T12:42:25.936Z,2.60
2022-12-25T12:44:55.861Z,2.17
2022-12-25T12:47:37.346Z,2.78
2022-12-25T12:50:04.974Z,2.03
2022-12-25T12:52:33.433Z,2.50
2022-12-25T12:55:03.277Z,2.88
2022-12-25T12:57:39.618Z,2.97
2022-12-25T13:00:11.911Z,1.73
2022-12-25T13:02:46.973Z,2.20
2022-12-25T13:05:20.384Z,2.85
2022-12-25T13:08:18.049Z,3.03
2022-12-25T13:10:50.335Z,8.27
2022-12-25T13:13:34.091Z,3.25
2022-12-25T13:16:00.484Z,3.13
2022-12-25T13:18:26.974Z,3.13
2022-12-25T13:20:55.314Z,2.50
2022-12-25T13:23:29.210Z,3.92
2022-12-25T13:26:11.626Z,3.42
2022-12-25T13:28:37.977Z,3.75
2022-12-25T13:31:17.332Z,2.45
2022-12-25T13:34:02.467Z,4.40
2022-12-25T13:36:35.050Z,3.58
2022-12-25T13:39:01.732Z,3.33
2022-12-25T13:41:55.486Z,2.90
2022-12-25T13:44:26.189Z,3.22
2022-12-25T13:46:52.609Z,3.05
2022-12-25T13:49:23.141Z,3.85
2022-12-25T13:51:50.996Z,2.80
2022-12-25T13:54:18.509Z,2.92
2022-12-25T13:56:51.905Z,3.05
2022-12-25T13:59:21.859Z,3.28
2022-12-25T14:01:51.264Z,3.10
2022-12-25T14:04:23.499Z,2.50
2022-12-25T14:06:50.934Z,3.75
2022-12-25T14:11:49.199Z,2.67
2022-12-25T14:14:24.359Z,3.67
2022-12-25T14:16:54.835Z,3.75
2022-12-25T14:19:32.574Z,4.50
2022-12-25T14:22:11.257Z,3.03
2022-12-25T14:24:39.852Z,3.10
2022-12-25T14:27:16.064Z,3.40
2022-12-25T14:29:45.617Z,2.72
2022-12-25T14:32:17.742Z,3.42
2022-12-25T14:34:46.422Z,3.05
2022-12-25T14:37:17.852Z,3.85
2022-12-25T14:39:48.003Z,3.97
2022-12-25T14:42:23.013Z,2.53
2022-12-25T14:45:03.353Z,3.35
2022-12-25T14:47:31.625Z,1.55
2022-12-25T14:49:58.643Z,2.60
2022-12-25T14:52:31.162Z,3.28
2022-12-25T14:55:01.045Z,3.33
2022-12-25T14:57:34.414Z,3.40
2022-12-25T15:00:05.321Z,2.55
2022-12-25T15:02:39.902Z,2.08
2022-12-25T15:05:23.702Z,3.08
2022-12-25T15:08:19.226Z,12.75
2022-12-25T15:10:59.631Z,9.68
2022-12-25T15:13:27.474Z,6.15
2022-12-25T15:16:00.768Z,4.45
2022-12-25T15:18:32.928Z,6.05
2022-12-25T15:20:59.503Z,8.63
2022-12-25T15:23:26.045Z,7.10
2022-12-25T15:25:52.861Z,8.55
2022-12-25T15:28:19.947Z,8.77
2022-12-25T15:30:46.970Z,4.22
2022-12-25T15:33:15.556Z,6.65
2022-12-25T15:35:44.139Z,6.45
2022-12-25T15:38:12.330Z,6.85
2022-12-25T15:40:38.893Z,6.82
2022-12-25T15:43:11.376Z,9.02
2022-12-25T15:45:47.403Z,6.80
2022-12-25T15:48:13.800Z,6.15
2022-12-25T15:50:40.177Z,7.30
2022-12-25T15:53:06.750Z,5.28
2022-12-25T15:55:34.242Z,7.05
2022-12-25T16:00:27.201Z,4.80
2022-12-25T16:02:53.977Z,6.70
2022-12-25T16:05:20.638Z,5.15
2022-12-25T16:07:47.134Z,4.20
2022-12-25T16:10:18.076Z,5.07
2022-12-25T16:12:45.061Z,3.90
2022-12-25T16:15:13.718Z,4.85
2022-12-25T16:17:40.955Z,4.40
2022-12-25T16:20:08.630Z,3.97
2022-12-25T16:22:39.964Z,4.85
2022-12-25T16:25:13.275Z,5.85
2022-12-25T16:27:39.702Z,4.93
2022-12-25T16:30:06.702Z,4.32
2022-12-25T16:32:33.370Z,4.75
2022-12-25T16:34:59.850Z,5.20
2022-12-25T16:37:27.566Z,5.03
2022-12-25T16:39:54.096Z,6.97
2022-12-25T16:42:20.670Z,5.28
2022-12-25T16:44:47.106Z,3.92
2022-12-25T16:47:13.455Z,11.02
2022-12-25T16:49:39.869Z,7.18
2022-12-25T16:52:06.380Z,25.88
2022-12-25T16:54:32.809Z,10.63
2022-12-25T16:56:59.274Z,10.27
2022-12-25T16:59:28.404Z,10.70
2022-12-25T17:01:54.947Z,6.45
2022-12-25T17:04:21.771Z,6.75
2022-12-25T17:06:49.198Z,6.82
2022-12-25T17:09:15.562Z,7.55
2022-12-25T17:11:41.956Z,5.75
2022-12-25T17:14:08.465Z,6.30
2022-12-25T17:16:36.656Z,8.73
2022-12-25T17:19:12.092Z,6.90
2022-12-25T17:21:38.758Z,4.75
2022-12-25T17:24:05.745Z,6.05
2022-12-25T17:26:32.952Z,6.57
2022-12-25T17:28:59.946Z,5.47
2022-12-25T17:31:26.710Z,5.85
2022-12-25T17:33:53.150Z,6.60
2022-12-25T17:36:21.143Z,7.05
2022-12-25T17:38:48.402Z,7.20
2022-12-25T17:41:16.534Z,6.78
2022-12-25T17:43:45.626Z,5.18
2022-12-25T17:46:24.380Z,7.47
2022-12-25T17:48:52.618Z,7.35
2022-12-25T17:51:22.002Z,7.05
2022-12-25T17:53:51.113Z,7.47
2022-12-25T17:56:19.177Z,6.60
2022-12-25T17:58:51.406Z,5.80
2022-12-25T18:01:18.431Z,4.93
2022-12-25T18:03:45.532Z,6.45
2022-12-25T18:06:14.918Z,5.70
2022-12-25T18:08:42.860Z,6.13
2022-12-25T18:11:13.653Z,7.82
2022-12-25T18:13:42.086Z,7.28
2022-12-25T18:16:08.895Z,7.57
2022-12-25T18:18:35.484Z,12.38
2022-12-25T18:21:02.231Z,9.30
2022-12-25T18:23:29.251Z,7.15
2022-12-25T18:25:56.345Z,6.78
2022-12-25T18:28:22.837Z,7.45
2022-12-25T18:30:49.295Z,6.18
2022-12-25T18:33:15.701Z,7.70
2022-12-25T18:35:43.516Z,7.22
2022-12-25T18:38:11.612Z,6.72
2022-12-25T18:40:47.724Z,7.43
2022-12-25T18:43:14.826Z,7.60
2022-12-25T18:45:42.173Z,8.35
2022-12-25T18:48:09.636Z,7.57
2022-12-25T18:50:40.382Z,7.82
2022-12-25T18:53:07.700Z,7.00
2022-12-25T18:55:34.141Z,7.78
2022-12-25T18:58:01.094Z,7.35
2022-12-25T19:00:28.089Z,7.32
2022-12-25T19:02:58.767Z,7.28
2022-12-25T19:05:26.204Z,9.15
2022-12-25T19:07:52.836Z,7.10
2022-12-25T19:10:19.499Z,7.45
2022-12-25T19:12:46.027Z,5.70
2022-12-25T19:15:12.572Z,10.90
2022-12-25T19:17:39.012Z,11.43
2022-12-25T19:20:06.197Z,18.60
2022-12-25T19:22:32.593Z,11.10
2022-12-25T19:24:59.099Z,11.02
2022-12-25T19:27:25.576Z,11.48
2022-12-25T19:29:51.987Z,9.23
2022-12-25T19:32:18.412Z,9.52
2022-12-25T19:34:44.955Z,7.90
2022-12-25T19:39:39.810Z,7.53
2022-12-25T19:42:06.231Z,7.97
2022-12-25T19:44:32.850Z,5.45
2022-12-25T19:46:59.223Z,8.32
2022-12-25T19:49:25.647Z,6.55
2022-12-25T19:51:52.059Z,5.68
2022-12-25T19:54:20.506Z,6.47
2022-12-25T19:56:48.604Z,6.53
2022-12-25T19:59:15.699Z,8.13
2022-12-25T20:01:42.339Z,6.65
2022-12-25T20:04:10.705Z,8.00
2022-12-25T20:06:39.139Z,6.90
2022-12-25T20:09:08.672Z,6.80
2022-12-25T20:11:36.697Z,7.55
2022-12-25T20:14:04.637Z,7.55
2022-12-25T20:16:31.374Z,9.30
2022-12-25T20:18:58.567Z,9.15
2022-12-25T20:21:27.415Z,9.93
2022-12-25T20:23:54.662Z,9.15
2022-12-25T20:26:24.362Z,9.88
2022-12-25T20:28:51.425Z,7.40
2022-12-25T20:31:21.861Z,10.45
2022-12-25T20:33:48.630Z,9.10
2022-12-25T20:36:15.404Z,10.82
2022-12-25T20:38:42.240Z,10.85
2022-12-25T20:41:28.355Z,10.35
2022-12-25T20:43:55.970Z,11.70
2022-12-25T20:46:22.804Z,10.18
2022-12-25T20:48:49.285Z,11.07
2022-12-25T20:51:20.842Z,7.40
2022-12-25T20:53:48.038Z,10.30
2022-12-25T20:56:17.336Z,9.05
2022-12-25T20:58:43.961Z,10.73
2022-12-25T21:01:13.459Z,8.77
2022-12-25T21:03:40.628Z,10.02
2022-12-25T21:06:08.005Z,12.32
2022-12-25T21:08:34.682Z,14.98
2022-12-25T21:11:01.564Z,13.50
2022-12-25T21:13:29.986Z,11.85
2022-12-25T21:15:57.274Z,13.77
2022-12-25T21:18:25.295Z,11.20
2022-12-25T21:20:54.213Z,12.32
2022-12-25T21:23:21.302Z,12.77
2022-12-25T21:25:48.727Z,22.00
2022-12-25T21:28:16.113Z,19.38
2022-12-25T21:30:42.733Z,15.35
2022-12-25T21:33:30.733Z,18.40
2022-12-25T21:36:04.922Z,16.92
2022-12-25T21:38:31.356Z,14.55
2022-12-25T21:41:05.306Z,11.60
2022-12-25T21:43:34.071Z,10.65
2022-12-25T21:46:05.841Z,7.47
2022-12-25T21:48:32.553Z,7.88
2022-12-25T21:51:41.098Z,9.38
2022-12-25T21:54:07.942Z,11.52
2022-12-25T21:56:43.072Z,12.10
2022-12-25T21:59:13.649Z,10.25
2022-12-25T22:01:40.059Z,13.75
2022-12-25T22:04:08.517Z,13.52
2022-12-25T22:06:54.172Z,11.50
2022-12-25T22:09:21.476Z,12.15
2022-12-25T22:12:06.909Z,13.52
2022-12-25T22:14:56.809Z,13.65
2022-12-25T22:17:54.353Z,10.60
2022-12-25T22:20:23.989Z,12.65
2022-12-25T22:22:51.240Z,12.05
2022-12-25T22:25:18.566Z,14.05
2022-12-25T22:27:46.216Z,14.90
2022-12-25T22:30:16.055Z,10.32
2022-12-25T22:32:42.969Z,8.93
2022-12-25T22:35:12.444Z,9.48
2022-12-25T22:37:39.985Z,7.60
2022-12-25T22:40:08.376Z,7.35
2022-12-25T22:42:35.123Z,6.53
2022-12-25T22:45:02.316Z,5.82
2022-12-25T22:47:28.824Z,6.00
2022-12-25T22:49:55.329Z,7.13
2022-12-25T22:52:21.913Z,6.22
2022-12-25T22:54:48.399Z,5.63
2022-12-25T22:57:14.957Z,10.82
2022-12-25T22:59:41.484Z,8.75
2022-12-25T23:02:08.457Z,7.35
2022-12-25T23:04:35.485Z,7.82
2022-12-25T23:07:02.347Z,7.55
2022-12-25T23:09:29.045Z,6.55
2022-12-25T23:11:57.796Z,8.48
2022-12-25T23:14:40.430Z,8.00
2022-12-25T23:17:31.317Z,6.57
2022-12-25T23:20:18.248Z,5.32
2022-12-25T23:23:04.334Z,6.13
2022-12-25T23:25:49.649Z,5.60
2022-12-25T23:28:36.072Z,5.65
2022-12-25T23:31:02.694Z,6.10
2022-12-25T23:33:29.200Z,6.55
2022-12-25T23:35:55.705Z,7.10
2022-12-25T23:38:22.251Z,8.57
2022-12-25T23:40:48.854Z,8.88
2022-12-25T23:43:15.371Z,8.18
2022-12-25T23:45:41.965Z,8.35
2022-12-25T23:48:08.599Z,8.25
2022-12-25T23:50:35.089Z,7.72
2022-12-25T23:53:01.798Z,8.07
2022-12-25T23:55:28.317Z,9.23
2022-12-25T23:57:54.755Z,10.70
